sensor_id;sensor_type;location;lat;lon;timestamp;temperature;humidity
3628;DHT22;1830;49.000;12.074;2024-03-06T00:01:50;7.20;99.90
3628;DHT22;1830;49.000;12.074;2024-03-06T00:04:17;7.20;99.90
3628;DHT22;1830;49.000;12.074;2024-03-06T00:06:45;7.20;99.90
3628;DHT22;1830;49.000;12.074;2024-03-06T00:09:12;7.20;99.90
3628;DHT22;1830;49.000;12.074;2024-03-06T00:11:38;7.20;99.90
3628;DHT22;1830;49.000;12.074;2024-03-06T00:14:05;7.30;99.90
3628;DHT22;1830;49.000;12.074;2024-03-06T00:16:32;7.20;99.90
3628;DHT22;1830;49.000;12.074;2024-03-06T00:18:59;7.20;99.90
3628;DHT22;1830;49.000;12.074;2024-03-06T00:21:26;7.20;99.90
3628;DHT22;1830;49.000;12.074;2024-03-06T00:23:55;7.20;99.90
3628;DHT22;1830;49.000;12.074;2024-03-06T00:26:22;7.30;99.90
3628;DHT22;1830;49.000;12.074;2024-03-06T00:28:49;7.30;99.90
3628;DHT22;1830;49.000;12.074;2024-03-06T00:31:16;7.20;99.90
3628;DHT22;1830;49.000;12.074;2024-03-06T00:33:43;7.20;99.90
3628;DHT22;1830;49.000;12.074;2024-03-06T00:36:10;7.30;99.90
3628;DHT22;1830;49.000;12.074;2024-03-06T00:38:37;7.20;99.90
3628;DHT22;1830;49.000;12.074;2024-03-06T00:41:05;7.30;99.90
3628;DHT22;1830;49.000;12.074;2024-03-06T00:43:32;7.20;99.90
3628;DHT22;1830;49.000;12.074;2024-03-06T00:45:58;7.20;99.90
3628;DHT22;1830;49.000;12.074;2024-03-06T00:48:26;7.20;99.90
3628;DHT22;1830;49.000;12.074;2024-03-06T00:50:52;7.10;99.90
3628;DHT22;1830;49.000;12.074;2024-03-06T00:53:19;7.10;99.90
3628;DHT22;1830;49.000;12.074;2024-03-06T00:55:49;7.10;99.90
3628;DHT22;1830;49.000;12.074;2024-03-06T00:58:17;7.10;99.90
3628;DHT22;1830;49.000;12.074;2024-03-06T01:00:44;7.10;99.90
3628;DHT22;1830;49.000;12.074;2024-03-06T01:03:11;7.10;99.90
3628;DHT22;1830;49.000;12.074;2024-03-06T01:05:37;7.10;99.90
3628;DHT22;1830;49.000;12.074;2024-03-06T01:08:05;7.10;99.90
3628;DHT22;1830;49.000;12.074;2024-03-06T01:10:31;7.00;99.90
3628;DHT22;1830;49.000;12.074;2024-03-06T01:12:58;7.10;99.90
3628;DHT22;1830;49.000;12.074;2024-03-06T01:15:26;7.10;99.90
3628;DHT22;1830;49.000;12.074;2024-03-06T01:17:53;7.10;99.90
3628;DHT22;1830;49.000;12.074;2024-03-06T01:20:20;7.10;99.90
3628;DHT22;1830;49.000;12.074;2024-03-06T01:22:47;7.10;99.90
3628;DHT22;1830;49.000;12.074;2024-03-06T01:25:13;7.10;99.90
3628;DHT22;1830;49.000;12.074;2024-03-06T01:27:40;7.10;99.90
3628;DHT22;1830;49.000;12.074;2024-03-06T01:30:08;7.10;99.90
3628;DHT22;1830;49.000;12.074;2024-03-06T01:32:36;7.10;99.90
3628;DHT22;1830;49.000;12.074;2024-03-06T01:35:04;7.00;99.90
3628;DHT22;1830;49.000;12.074;2024-03-06T01:37:32;7.00;99.90
3628;DHT22;1830;49.000;12.074;2024-03-06T01:39:58;7.00;99.90
3628;DHT22;1830;49.000;12.074;2024-03-06T01:42:25;7.00;99.90
3628;DHT22;1830;49.000;12.074;2024-03-06T01:44:52;7.10;99.90
3628;DHT22;1830;49.000;12.074;2024-03-06T01:47:19;7.10;99.90
3628;DHT22;1830;49.000;12.074;2024-03-06T01:49:47;7.10;99.90
3628;DHT22;1830;49.000;12.074;2024-03-06T01:52:15;7.10;99.90
3628;DHT22;1830;49.000;12.074;2024-03-06T01:54:43;7.00;99.90
3628;DHT22;1830;49.000;12.074;2024-03-06T01:57:11;7.00;99.90
3628;DHT22;1830;49.000;12.074;2024-03-06T01:59:40;7.00;99.90
3628;DHT22;1830;49.000;12.074;2024-03-06T02:02:07;7.00;99.90
3628;DHT22;1830;49.000;12.074;2024-03-06T02:04:36;7.00;99.90
3628;DHT22;1830;49.000;12.074;2024-03-06T02:07:08;7.00;99.90
3628;DHT22;1830;49.000;12.074;2024-03-06T02:09:36;7.00;99.90
3628;DHT22;1830;49.000;12.074;2024-03-06T02:12:03;7.00;99.90
3628;DHT22;1830;49.000;12.074;2024-03-06T02:14:30;7.00;99.90
3628;DHT22;1830;49.000;12.074;2024-03-06T02:16:56;7.00;99.90
3628;DHT22;1830;49.000;12.074;2024-03-06T02:19:23;7.00;99.90
3628;DHT22;1830;49.000;12.074;2024-03-06T02:21:53;7.00;99.90
3628;DHT22;1830;49.000;12.074;2024-03-06T02:24:20;7.00;99.90
3628;DHT22;1830;49.000;12.074;2024-03-06T02:26:47;7.00;99.90
3628;DHT22;1830;49.000;12.074;2024-03-06T02:29:14;7.00;99.90
3628;DHT22;1830;49.000;12.074;2024-03-06T02:31:41;7.00;99.90
3628;DHT22;1830;49.000;12.074;2024-03-06T02:34:08;7.00;99.90
3628;DHT22;1830;49.000;12.074;2024-03-06T02:36:35;6.90;99.90
3628;DHT22;1830;49.000;12.074;2024-03-06T02:39:03;6.90;99.90
3628;DHT22;1830;49.000;12.074;2024-03-06T02:41:34;6.90;99.90
3628;DHT22;1830;49.000;12.074;2024-03-06T02:44:01;6.90;99.90
3628;DHT22;1830;49.000;12.074;2024-03-06T02:46:28;6.90;99.90
3628;DHT22;1830;49.000;12.074;2024-03-06T02:48:55;6.90;99.90
3628;DHT22;1830;49.000;12.074;2024-03-06T02:51:22;6.90;99.90
3628;DHT22;1830;49.000;12.074;2024-03-06T02:53:48;6.90;99.90
3628;DHT22;1830;49.000;12.074;2024-03-06T02:56:20;6.80;99.90
3628;DHT22;1830;49.000;12.074;2024-03-06T02:58:46;6.80;99.90
3628;DHT22;1830;49.000;12.074;2024-03-06T03:01:14;6.80;99.90
3628;DHT22;1830;49.000;12.074;2024-03-06T03:03:41;6.80;99.90
3628;DHT22;1830;49.000;12.074;2024-03-06T03:06:08;6.80;99.90
3628;DHT22;1830;49.000;12.074;2024-03-06T03:08:35;6.70;99.90
3628;DHT22;1830;49.000;12.074;2024-03-06T03:11:03;6.70;99.90
3628;DHT22;1830;49.000;12.074;2024-03-06T03:13:31;6.70;99.90
3628;DHT22;1830;49.000;12.074;2024-03-06T03:15:58;6.70;99.90
3628;DHT22;1830;49.000;12.074;2024-03-06T03:18:24;6.60;99.90
3628;DHT22;1830;49.000;12.074;2024-03-06T03:20:52;6.70;99.90
3628;DHT22;1830;49.000;12.074;2024-03-06T03:23:18;6.60;99.90
3628;DHT22;1830;49.000;12.074;2024-03-06T03:25:47;6.60;99.90
3628;DHT22;1830;49.000;12.074;2024-03-06T03:28:15;6.60;99.90
3628;DHT22;1830;49.000;12.074;2024-03-06T03:30:44;6.60;99.90
3628;DHT22;1830;49.000;12.074;2024-03-06T03:33:11;6.50;99.90
3628;DHT22;1830;49.000;12.074;2024-03-06T03:35:37;6.50;99.90
3628;DHT22;1830;49.000;12.074;2024-03-06T03:38:04;6.50;99.90
3628;DHT22;1830;49.000;12.074;2024-03-06T03:40:30;6.50;99.90
3628;DHT22;1830;49.000;12.074;2024-03-06T03:42:58;6.40;99.90
3628;DHT22;1830;49.000;12.074;2024-03-06T03:45:31;6.50;99.90
3628;DHT22;1830;49.000;12.074;2024-03-06T03:48:01;6.50;99.90
3628;DHT22;1830;49.000;12.074;2024-03-06T03:50:31;6.40;99.90
3628;DHT22;1830;49.000;12.074;2024-03-06T03:52:58;6.40;99.90
3628;DHT22;1830;49.000;12.074;2024-03-06T03:55:26;6.40;99.90
3628;DHT22;1830;49.000;12.074;2024-03-06T03:57:53;6.40;99.90
3628;DHT22;1830;49.000;12.074;2024-03-06T04:00:20;6.40;99.90
3628;DHT22;1830;49.000;12.074;2024-03-06T04:02:48;6.40;99.90
3628;DHT22;1830;49.000;12.074;2024-03-06T04:05:16;6.40;99.90
3628;DHT22;1830;49.000;12.074;2024-03-06T04:07:43;6.30;99.90
3628;DHT22;1830;49.000;12.074;2024-03-06T04:10:10;6.40;99.90
3628;DHT22;1830;49.000;12.074;2024-03-06T04:12:37;6.40;99.90
3628;DHT22;1830;49.000;12.074;2024-03-06T04:15:05;6.40;99.90
3628;DHT22;1830;49.000;12.074;2024-03-06T04:17:34;6.40;99.90
3628;DHT22;1830;49.000;12.074;2024-03-06T04:20:01;6.40;99.90
3628;DHT22;1830;49.000;12.074;2024-03-06T04:22:30;6.40;99.90
3628;DHT22;1830;49.000;12.074;2024-03-06T04:24:57;6.40;99.90
3628;DHT22;1830;49.000;12.074;2024-03-06T04:27:25;6.40;99.90
3628;DHT22;1830;49.000;12.074;2024-03-06T04:29:51;6.40;99.90
3628;DHT22;1830;49.000;12.074;2024-03-06T04:32:19;6.40;99.90
3628;DHT22;1830;49.000;12.074;2024-03-06T04:34:45;6.30;99.90
3628;DHT22;1830;49.000;12.074;2024-03-06T04:37:13;6.30;99.90
3628;DHT22;1830;49.000;12.074;2024-03-06T04:39:41;6.30;99.90
3628;DHT22;1830;49.000;12.074;2024-03-06T04:42:08;6.30;99.90
3628;DHT22;1830;49.000;12.074;2024-03-06T04:44:34;6.30;99.90
3628;DHT22;1830;49.000;12.074;2024-03-06T04:47:01;6.20;99.90
3628;DHT22;1830;49.000;12.074;2024-03-06T04:49:28;6.30;99.90
3628;DHT22;1830;49.000;12.074;2024-03-06T04:51:58;6.20;99.90
3628;DHT22;1830;49.000;12.074;2024-03-06T04:54:25;6.30;99.90
3628;DHT22;1830;49.000;12.074;2024-03-06T04:56:53;6.30;99.90
3628;DHT22;1830;49.000;12.074;2024-03-06T04:59:22;6.30;99.90
3628;DHT22;1830;49.000;12.074;2024-03-06T05:01:49;6.30;99.90
3628;DHT22;1830;49.000;12.074;2024-03-06T05:04:24;6.30;99.90
3628;DHT22;1830;49.000;12.074;2024-03-06T05:06:51;6.30;99.90
3628;DHT22;1830;49.000;12.074;2024-03-06T05:09:17;6.30;99.90
3628;DHT22;1830;49.000;12.074;2024-03-06T05:11:44;6.30;99.90
3628;DHT22;1830;49.000;12.074;2024-03-06T05:14:12;6.30;99.90
3628;DHT22;1830;49.000;12.074;2024-03-06T05:16:39;6.50;99.90
3628;DHT22;1830;49.000;12.074;2024-03-06T05:19:06;6.50;99.90
3628;DHT22;1830;49.000;12.074;2024-03-06T05:21:33;6.40;99.90
3628;DHT22;1830;49.000;12.074;2024-03-06T05:24:00;6.40;99.90
3628;DHT22;1830;49.000;12.074;2024-03-06T05:26:28;6.40;99.90
3628;DHT22;1830;49.000;12.074;2024-03-06T05:28:54;6.50;99.90
3628;DHT22;1830;49.000;12.074;2024-03-06T05:31:22;6.40;99.90
3628;DHT22;1830;49.000;12.074;2024-03-06T05:33:50;6.40;99.90
3628;DHT22;1830;49.000;12.074;2024-03-06T05:36:18;6.40;99.90
3628;DHT22;1830;49.000;12.074;2024-03-06T05:38:44;6.40;99.90
3628;DHT22;1830;49.000;12.074;2024-03-06T05:41:11;6.30;99.90
3628;DHT22;1830;49.000;12.074;2024-03-06T05:43:38;6.30;99.90
3628;DHT22;1830;49.000;12.074;2024-03-06T05:46:06;6.30;99.90
3628;DHT22;1830;49.000;12.074;2024-03-06T05:48:35;6.20;99.90
3628;DHT22;1830;49.000;12.074;2024-03-06T05:51:01;6.30;99.90
3628;DHT22;1830;49.000;12.074;2024-03-06T05:53:28;6.30;99.90
3628;DHT22;1830;49.000;12.074;2024-03-06T05:55:55;6.30;99.90
3628;DHT22;1830;49.000;12.074;2024-03-06T05:58:22;6.30;99.90
3628;DHT22;1830;49.000;12.074;2024-03-06T06:00:49;6.30;99.90
3628;DHT22;1830;49.000;12.074;2024-03-06T06:03:16;6.30;99.90
3628;DHT22;1830;49.000;12.074;2024-03-06T06:05:45;6.30;99.90
3628;DHT22;1830;49.000;12.074;2024-03-06T06:08:12;6.40;99.90
3628;DHT22;1830;49.000;12.074;2024-03-06T06:10:39;6.40;99.90
3628;DHT22;1830;49.000;12.074;2024-03-06T06:13:06;6.30;99.90
3628;DHT22;1830;49.000;12.074;2024-03-06T06:15:33;6.30;99.90
3628;DHT22;1830;49.000;12.074;2024-03-06T06:17:59;6.30;99.90
3628;DHT22;1830;49.000;12.074;2024-03-06T06:20:26;6.40;99.90
3628;DHT22;1830;49.000;12.074;2024-03-06T06:22:54;6.40;99.90
3628;DHT22;1830;49.000;12.074;2024-03-06T06:25:21;6.40;99.90
3628;DHT22;1830;49.000;12.074;2024-03-06T06:27:48;6.50;99.90
3628;DHT22;1830;49.000;12.074;2024-03-06T06:30:16;6.50;99.90
3628;DHT22;1830;49.000;12.074;2024-03-06T06:32:43;6.50;99.90
3628;DHT22;1830;49.000;12.074;2024-03-06T06:35:10;6.50;99.90
3628;DHT22;1830;49.000;12.074;2024-03-06T06:37:39;6.50;99.90
3628;DHT22;1830;49.000;12.074;2024-03-06T06:40:08;6.50;99.90
3628;DHT22;1830;49.000;12.074;2024-03-06T06:42:37;6.50;99.90
3628;DHT22;1830;49.000;12.074;2024-03-06T06:45:05;6.50;99.90
3628;DHT22;1830;49.000;12.074;2024-03-06T06:47:35;6.40;99.90
3628;DHT22;1830;49.000;12.074;2024-03-06T06:50:02;6.40;99.90
3628;DHT22;1830;49.000;12.074;2024-03-06T06:52:31;6.50;99.90
3628;DHT22;1830;49.000;12.074;2024-03-06T06:54:59;6.50;99.90
3628;DHT22;1830;49.000;12.074;2024-03-06T06:57:27;6.60;99.90
3628;DHT22;1830;49.000;12.074;2024-03-06T06:59:54;6.50;99.90
3628;DHT22;1830;49.000;12.074;2024-03-06T07:02:21;6.60;99.90
3628;DHT22;1830;49.000;12.074;2024-03-06T07:04:48;6.70;99.90
3628;DHT22;1830;49.000;12.074;2024-03-06T07:07:15;6.70;99.90
3628;DHT22;1830;49.000;12.074;2024-03-06T07:09:42;6.70;99.90
3628;DHT22;1830;49.000;12.074;2024-03-06T07:12:09;6.70;99.90
3628;DHT22;1830;49.000;12.074;2024-03-06T07:14:37;6.80;99.90
3628;DHT22;1830;49.000;12.074;2024-03-06T07:17:04;6.80;99.90
3628;DHT22;1830;49.000;12.074;2024-03-06T07:19:31;6.80;99.90
3628;DHT22;1830;49.000;12.074;2024-03-06T07:21:57;6.80;99.90
3628;DHT22;1830;49.000;12.074;2024-03-06T07:24:24;6.80;99.90
3628;DHT22;1830;49.000;12.074;2024-03-06T07:26:51;6.90;99.90
3628;DHT22;1830;49.000;12.074;2024-03-06T07:29:18;6.90;99.90
3628;DHT22;1830;49.000;12.074;2024-03-06T07:31:46;7.00;99.90
3628;DHT22;1830;49.000;12.074;2024-03-06T07:34:14;7.00;99.90
3628;DHT22;1830;49.000;12.074;2024-03-06T07:36:41;7.00;99.90
3628;DHT22;1830;49.000;12.074;2024-03-06T07:39:08;7.10;99.90
3628;DHT22;1830;49.000;12.074;2024-03-06T07:41:34;7.10;99.90
3628;DHT22;1830;49.000;12.074;2024-03-06T07:44:01;7.20;99.90
3628;DHT22;1830;49.000;12.074;2024-03-06T07:46:28;7.20;99.90
3628;DHT22;1830;49.000;12.074;2024-03-06T07:48:56;7.30;99.90
3628;DHT22;1830;49.000;12.074;2024-03-06T07:51:23;7.30;99.90
3628;DHT22;1830;49.000;12.074;2024-03-06T07:53:50;7.30;99.90
3628;DHT22;1830;49.000;12.074;2024-03-06T07:56:17;7.40;99.90
3628;DHT22;1830;49.000;12.074;2024-03-06T07:58:44;7.40;99.90
3628;DHT22;1830;49.000;12.074;2024-03-06T08:01:11;7.30;99.90
3628;DHT22;1830;49.000;12.074;2024-03-06T08:03:39;7.40;99.90
3628;DHT22;1830;49.000;12.074;2024-03-06T08:06:08;7.50;99.90
3628;DHT22;1830;49.000;12.074;2024-03-06T08:08:35;7.50;99.90
3628;DHT22;1830;49.000;12.074;2024-03-06T08:11:02;7.50;99.90
3628;DHT22;1830;49.000;12.074;2024-03-06T08:13:29;7.60;99.90
3628;DHT22;1830;49.000;12.074;2024-03-06T08:15:56;7.60;99.90
3628;DHT22;1830;49.000;12.074;2024-03-06T08:18:22;7.60;99.90
3628;DHT22;1830;49.000;12.074;2024-03-06T08:20:49;7.70;99.90
3628;DHT22;1830;49.000;12.074;2024-03-06T08:23:17;7.80;99.90
3628;DHT22;1830;49.000;12.074;2024-03-06T08:25:45;7.90;99.90
3628;DHT22;1830;49.000;12.074;2024-03-06T08:28:12;7.90;99.90
3628;DHT22;1830;49.000;12.074;2024-03-06T08:30:39;7.90;99.90
3628;DHT22;1830;49.000;12.074;2024-03-06T08:33:05;7.90;99.90
3628;DHT22;1830;49.000;12.074;2024-03-06T08:35:31;7.90;99.90
3628;DHT22;1830;49.000;12.074;2024-03-06T08:37:58;7.90;99.90
3628;DHT22;1830;49.000;12.074;2024-03-06T08:40:26;7.90;99.90
3628;DHT22;1830;49.000;12.074;2024-03-06T08:42:53;8.00;99.90
3628;DHT22;1830;49.000;12.074;2024-03-06T08:45:21;7.90;99.90
3628;DHT22;1830;49.000;12.074;2024-03-06T08:47:48;7.90;99.90
3628;DHT22;1830;49.000;12.074;2024-03-06T08:50:16;7.90;99.90
3628;DHT22;1830;49.000;12.074;2024-03-06T08:52:43;7.90;99.90
3628;DHT22;1830;49.000;12.074;2024-03-06T08:55:10;8.00;99.90
3628;DHT22;1830;49.000;12.074;2024-03-06T08:57:38;8.00;99.90
3628;DHT22;1830;49.000;12.074;2024-03-06T09:00:07;8.00;99.90
3628;DHT22;1830;49.000;12.074;2024-03-06T09:02:36;8.00;99.90
3628;DHT22;1830;49.000;12.074;2024-03-06T09:05:04;8.20;99.90
3628;DHT22;1830;49.000;12.074;2024-03-06T09:07:31;8.30;99.90
3628;DHT22;1830;49.000;12.074;2024-03-06T09:10:03;8.40;99.90
3628;DHT22;1830;49.000;12.074;2024-03-06T09:12:31;8.40;99.90
3628;DHT22;1830;49.000;12.074;2024-03-06T09:14:59;8.50;99.90
3628;DHT22;1830;49.000;12.074;2024-03-06T09:17:26;8.70;99.90
3628;DHT22;1830;49.000;12.074;2024-03-06T09:19:53;8.70;99.90
3628;DHT22;1830;49.000;12.074;2024-03-06T09:22:20;8.70;99.90
3628;DHT22;1830;49.000;12.074;2024-03-06T09:24:47;8.70;99.90
3628;DHT22;1830;49.000;12.074;2024-03-06T09:27:14;8.80;99.90
3628;DHT22;1830;49.000;12.074;2024-03-06T09:29:41;8.70;99.90
3628;DHT22;1830;49.000;12.074;2024-03-06T09:32:10;8.80;99.90
3628;DHT22;1830;49.000;12.074;2024-03-06T09:34:38;8.70;99.90
3628;DHT22;1830;49.000;12.074;2024-03-06T09:37:05;8.80;99.90
3628;DHT22;1830;49.000;12.074;2024-03-06T09:39:32;8.90;99.90
3628;DHT22;1830;49.000;12.074;2024-03-06T09:41:59;8.90;99.90
3628;DHT22;1830;49.000;12.074;2024-03-06T09:44:27;9.00;99.90
3628;DHT22;1830;49.000;12.074;2024-03-06T09:46:54;9.10;99.90
3628;DHT22;1830;49.000;12.074;2024-03-06T09:49:26;9.20;99.90
3628;DHT22;1830;49.000;12.074;2024-03-06T09:51:53;9.30;99.90
3628;DHT22;1830;49.000;12.074;2024-03-06T09:54:21;9.40;99.90
3628;DHT22;1830;49.000;12.074;2024-03-06T09:56:54;9.40;99.90
3628;DHT22;1830;49.000;12.074;2024-03-06T09:59:23;9.40;99.90
3628;DHT22;1830;49.000;12.074;2024-03-06T10:01:50;9.40;99.90
3628;DHT22;1830;49.000;12.074;2024-03-06T10:04:20;9.50;99.90
3628;DHT22;1830;49.000;12.074;2024-03-06T10:06:49;9.50;99.90
3628;DHT22;1830;49.000;12.074;2024-03-06T10:09:17;9.60;99.90
3628;DHT22;1830;49.000;12.074;2024-03-06T10:11:44;9.80;99.90
3628;DHT22;1830;49.000;12.074;2024-03-06T10:14:11;9.90;99.90
3628;DHT22;1830;49.000;12.074;2024-03-06T10:16:54;9.90;99.90
3628;DHT22;1830;49.000;12.074;2024-03-06T10:19:23;10.00;99.90
3628;DHT22;1830;49.000;12.074;2024-03-06T10:21:52;10.00;99.90
3628;DHT22;1830;49.000;12.074;2024-03-06T10:24:19;10.10;99.90
3628;DHT22;1830;49.000;12.074;2024-03-06T10:26:47;10.10;99.90
3628;DHT22;1830;49.000;12.074;2024-03-06T10:29:17;10.10;99.90
3628;DHT22;1830;49.000;12.074;2024-03-06T10:31:49;10.20;99.90
3628;DHT22;1830;49.000;12.074;2024-03-06T10:34:16;10.20;99.90
3628;DHT22;1830;49.000;12.074;2024-03-06T10:36:42;10.20;99.90
3628;DHT22;1830;49.000;12.074;2024-03-06T10:39:11;10.20;99.90
3628;DHT22;1830;49.000;12.074;2024-03-06T10:41:40;10.10;99.90
3628;DHT22;1830;49.000;12.074;2024-03-06T10:44:11;10.20;99.90
3628;DHT22;1830;49.000;12.074;2024-03-06T10:46:41;10.20;99.90
3628;DHT22;1830;49.000;12.074;2024-03-06T10:49:10;10.20;99.90
3628;DHT22;1830;49.000;12.074;2024-03-06T10:51:39;10.20;99.90
3628;DHT22;1830;49.000;12.074;2024-03-06T10:54:09;10.20;99.90
3628;DHT22;1830;49.000;12.074;2024-03-06T10:56:38;10.10;99.90
3628;DHT22;1830;49.000;12.074;2024-03-06T10:59:09;10.10;99.90
3628;DHT22;1830;49.000;12.074;2024-03-06T11:01:37;10.10;99.90
3628;DHT22;1830;49.000;12.074;2024-03-06T11:04:05;10.10;99.90
3628;DHT22;1830;49.000;12.074;2024-03-06T11:06:32;10.10;99.90
3628;DHT22;1830;49.000;12.074;2024-03-06T11:08:59;10.00;99.90
3628;DHT22;1830;49.000;12.074;2024-03-06T11:11:26;10.00;99.90
3628;DHT22;1830;49.000;12.074;2024-03-06T11:14:00;10.00;99.90
3628;DHT22;1830;49.000;12.074;2024-03-06T11:16:28;10.00;99.90
3628;DHT22;1830;49.000;12.074;2024-03-06T11:19:05;10.00;99.90
3628;DHT22;1830;49.000;12.074;2024-03-06T11:21:33;10.00;99.90
3628;DHT22;1830;49.000;12.074;2024-03-06T11:24:20;10.10;99.90
3628;DHT22;1830;49.000;12.074;2024-03-06T11:26:57;10.10;99.90
3628;DHT22;1830;49.000;12.074;2024-03-06T11:29:28;10.10;99.90
3628;DHT22;1830;49.000;12.074;2024-03-06T11:32:06;10.20;99.90
3628;DHT22;1830;49.000;12.074;2024-03-06T11:34:34;10.20;99.90
3628;DHT22;1830;49.000;12.074;2024-03-06T11:37:04;10.30;99.90
3628;DHT22;1830;49.000;12.074;2024-03-06T11:39:33;10.40;99.90
3628;DHT22;1830;49.000;12.074;2024-03-06T11:42:03;10.50;99.90
3628;DHT22;1830;49.000;12.074;2024-03-06T11:44:32;10.60;99.90
3628;DHT22;1830;49.000;12.074;2024-03-06T11:47:00;10.60;99.90
3628;DHT22;1830;49.000;12.074;2024-03-06T11:49:27;10.60;99.90
3628;DHT22;1830;49.000;12.074;2024-03-06T11:52:00;10.70;99.90
3628;DHT22;1830;49.000;12.074;2024-03-06T11:54:28;10.80;99.90
3628;DHT22;1830;49.000;12.074;2024-03-06T11:56:56;11.00;99.90
3628;DHT22;1830;49.000;12.074;2024-03-06T11:59:23;11.10;99.90
3628;DHT22;1830;49.000;12.074;2024-03-06T12:01:52;11.20;99.90
3628;DHT22;1830;49.000;12.074;2024-03-06T12:04:19;11.40;99.90
3628;DHT22;1830;49.000;12.074;2024-03-06T12:06:47;11.50;99.90
3628;DHT22;1830;49.000;12.074;2024-03-06T12:09:15;11.60;99.90
3628;DHT22;1830;49.000;12.074;2024-03-06T12:11:42;11.80;99.90
3628;DHT22;1830;49.000;12.074;2024-03-06T12:14:13;12.00;99.90
3628;DHT22;1830;49.000;12.074;2024-03-06T12:16:42;12.10;99.90
3628;DHT22;1830;49.000;12.074;2024-03-06T12:19:10;12.30;99.90
3628;DHT22;1830;49.000;12.074;2024-03-06T12:21:39;12.20;99.90
3628;DHT22;1830;49.000;12.074;2024-03-06T12:24:07;12.00;99.90
3628;DHT22;1830;49.000;12.074;2024-03-06T12:26:36;11.90;99.90
3628;DHT22;1830;49.000;12.074;2024-03-06T12:29:07;11.70;99.90
3628;DHT22;1830;49.000;12.074;2024-03-06T12:31:35;11.70;99.90
3628;DHT22;1830;49.000;12.074;2024-03-06T12:34:02;11.60;99.90
3628;DHT22;1830;49.000;12.074;2024-03-06T12:36:31;11.50;99.90
3628;DHT22;1830;49.000;12.074;2024-03-06T12:38:59;11.30;99.90
3628;DHT22;1830;49.000;12.074;2024-03-06T12:41:26;11.20;99.90
3628;DHT22;1830;49.000;12.074;2024-03-06T12:43:54;11.30;99.90
3628;DHT22;1830;49.000;12.074;2024-03-06T12:46:22;11.40;99.90
3628;DHT22;1830;49.000;12.074;2024-03-06T12:48:49;11.40;99.90
3628;DHT22;1830;49.000;12.074;2024-03-06T12:51:16;11.40;99.90
3628;DHT22;1830;49.000;12.074;2024-03-06T12:53:44;11.40;99.90
3628;DHT22;1830;49.000;12.074;2024-03-06T12:56:11;11.30;99.90
3628;DHT22;1830;49.000;12.074;2024-03-06T12:58:38;11.40;99.90
3628;DHT22;1830;49.000;12.074;2024-03-06T13:01:05;11.50;99.90
3628;DHT22;1830;49.000;12.074;2024-03-06T13:03:31;11.50;99.90
3628;DHT22;1830;49.000;12.074;2024-03-06T13:05:59;11.60;99.90
3628;DHT22;1830;49.000;12.074;2024-03-06T13:08:26;11.70;99.90
3628;DHT22;1830;49.000;12.074;2024-03-06T13:10:54;11.70;99.90
3628;DHT22;1830;49.000;12.074;2024-03-06T13:13:22;11.60;99.90
3628;DHT22;1830;49.000;12.074;2024-03-06T13:15:50;11.70;99.90
3628;DHT22;1830;49.000;12.074;2024-03-06T13:18:17;11.90;99.90
3628;DHT22;1830;49.000;12.074;2024-03-06T13:20:44;12.00;99.90
3628;DHT22;1830;49.000;12.074;2024-03-06T13:23:11;11.90;99.90
3628;DHT22;1830;49.000;12.074;2024-03-06T13:25:38;12.00;99.90
3628;DHT22;1830;49.000;12.074;2024-03-06T13:28:07;11.80;99.90
3628;DHT22;1830;49.000;12.074;2024-03-06T13:30:34;12.10;99.90
3628;DHT22;1830;49.000;12.074;2024-03-06T13:33:01;12.10;99.90
3628;DHT22;1830;49.000;12.074;2024-03-06T13:35:28;12.10;99.90
3628;DHT22;1830;49.000;12.074;2024-03-06T13:37:54;12.10;99.50
3628;DHT22;1830;49.000;12.074;2024-03-06T13:40:21;12.40;99.90
3628;DHT22;1830;49.000;12.074;2024-03-06T13:42:48;12.30;99.30
3628;DHT22;1830;49.000;12.074;2024-03-06T13:45:16;12.30;99.30
3628;DHT22;1830;49.000;12.074;2024-03-06T13:47:44;12.30;99.70
3628;DHT22;1830;49.000;12.074;2024-03-06T13:50:12;12.30;99.90
3628;DHT22;1830;49.000;12.074;2024-03-06T13:52:39;12.20;99.90
3628;DHT22;1830;49.000;12.074;2024-03-06T13:55:07;12.10;99.90
3628;DHT22;1830;49.000;12.074;2024-03-06T13:57:36;12.00;99.90
3628;DHT22;1830;49.000;12.074;2024-03-06T14:00:04;11.90;99.90
3628;DHT22;1830;49.000;12.074;2024-03-06T14:02:33;11.70;99.90
3628;DHT22;1830;49.000;12.074;2024-03-06T14:04:59;11.70;99.90
3628;DHT22;1830;49.000;12.074;2024-03-06T14:07:26;11.70;99.90
3628;DHT22;1830;49.000;12.074;2024-03-06T14:09:53;11.60;99.90
3628;DHT22;1830;49.000;12.074;2024-03-06T14:12:22;11.50;99.90
3628;DHT22;1830;49.000;12.074;2024-03-06T14:14:49;11.50;99.90
3628;DHT22;1830;49.000;12.074;2024-03-06T14:17:16;11.50;99.90
3628;DHT22;1830;49.000;12.074;2024-03-06T14:19:44;11.50;99.90
3628;DHT22;1830;49.000;12.074;2024-03-06T14:22:11;11.70;99.90
3628;DHT22;1830;49.000;12.074;2024-03-06T14:24:38;11.70;99.90
3628;DHT22;1830;49.000;12.074;2024-03-06T14:27:05;11.80;99.90
3628;DHT22;1830;49.000;12.074;2024-03-06T14:29:32;11.80;99.90
3628;DHT22;1830;49.000;12.074;2024-03-06T14:31:59;11.60;99.90
3628;DHT22;1830;49.000;12.074;2024-03-06T14:34:26;11.60;99.90
3628;DHT22;1830;49.000;12.074;2024-03-06T14:36:54;11.60;99.90
3628;DHT22;1830;49.000;12.074;2024-03-06T14:39:21;11.60;99.90
3628;DHT22;1830;49.000;12.074;2024-03-06T14:41:49;11.50;99.90
3628;DHT22;1830;49.000;12.074;2024-03-06T14:44:16;11.60;99.90
3628;DHT22;1830;49.000;12.074;2024-03-06T14:46:43;11.60;99.90
3628;DHT22;1830;49.000;12.074;2024-03-06T14:49:10;11.60;99.90
3628;DHT22;1830;49.000;12.074;2024-03-06T14:51:37;11.50;99.90
3628;DHT22;1830;49.000;12.074;2024-03-06T14:54:05;11.40;99.90
3628;DHT22;1830;49.000;12.074;2024-03-06T14:56:32;11.50;99.90
3628;DHT22;1830;49.000;12.074;2024-03-06T14:58:59;11.60;99.90
3628;DHT22;1830;49.000;12.074;2024-03-06T15:01:26;11.50;99.90
3628;DHT22;1830;49.000;12.074;2024-03-06T15:03:54;11.50;99.90
3628;DHT22;1830;49.000;12.074;2024-03-06T15:06:21;11.40;99.90
3628;DHT22;1830;49.000;12.074;2024-03-06T15:08:48;11.30;99.90
3628;DHT22;1830;49.000;12.074;2024-03-06T15:11:16;11.30;99.90
3628;DHT22;1830;49.000;12.074;2024-03-06T15:13:43;11.30;99.90
3628;DHT22;1830;49.000;12.074;2024-03-06T15:16:10;11.20;99.90
3628;DHT22;1830;49.000;12.074;2024-03-06T15:18:38;11.20;99.90
3628;DHT22;1830;49.000;12.074;2024-03-06T15:21:06;11.10;99.90
3628;DHT22;1830;49.000;12.074;2024-03-06T15:23:33;11.10;99.90
3628;DHT22;1830;49.000;12.074;2024-03-06T15:26:00;11.00;99.90
3628;DHT22;1830;49.000;12.074;2024-03-06T15:28:28;10.90;99.90
3628;DHT22;1830;49.000;12.074;2024-03-06T15:30:55;10.90;99.90
3628;DHT22;1830;49.000;12.074;2024-03-06T15:33:23;10.80;99.90
3628;DHT22;1830;49.000;12.074;2024-03-06T15:35:50;10.80;99.90
3628;DHT22;1830;49.000;12.074;2024-03-06T15:38:16;10.80;99.90
3628;DHT22;1830;49.000;12.074;2024-03-06T15:40:44;10.90;99.90
3628;DHT22;1830;49.000;12.074;2024-03-06T15:43:13;10.80;99.90
3628;DHT22;1830;49.000;12.074;2024-03-06T15:45:41;10.80;99.90
3628;DHT22;1830;49.000;12.074;2024-03-06T15:48:08;10.70;99.90
3628;DHT22;1830;49.000;12.074;2024-03-06T15:50:39;10.70;99.90
3628;DHT22;1830;49.000;12.074;2024-03-06T15:53:05;10.50;99.90
3628;DHT22;1830;49.000;12.074;2024-03-06T15:55:33;10.40;99.90
3628;DHT22;1830;49.000;12.074;2024-03-06T15:58:00;10.40;99.90
3628;DHT22;1830;49.000;12.074;2024-03-06T16:00:27;10.40;99.90